sensor_id;sensor_type;location;lat;lon;timestamp;pressure;altitude;pressure_sealevel;temperature;humidity
78117;BME280;67887;59.082;37.928;2023-02-28T00:01:12;99231.25;;;1.48;45.54
78117;BME280;67887;59.082;37.928;2023-02-28T00:03:39;99219.19;;;1.50;45.82
78117;BME280;67887;59.082;37.928;2023-02-28T00:06:06;99238.03;;;1.50;46.01
78117;BME280;67887;59.082;37.928;2023-02-28T00:08:32;99238.13;;;1.47;45.36
78117;BME280;67887;59.082;37.928;2023-02-28T00:11:08;99230.31;;;1.50;45.65
78117;BME280;67887;59.082;37.928;2023-02-28T00:13:36;99205.47;;;1.49;45.95
78117;BME280;67887;59.082;37.928;2023-02-28T00:16:04;99245.78;;;1.50;46.08
78117;BME280;67887;59.082;37.928;2023-02-28T00:18:31;99215.78;;;1.48;45.53
78117;BME280;67887;59.082;37.928;2023-02-28T00:20:58;99225.25;;;1.47;45.99
78117;BME280;67887;59.082;37.928;2023-02-28T00:23:24;99171.22;;;1.44;45.73
78117;BME280;67887;59.082;37.928;2023-02-28T00:25:51;99182.41;;;1.44;45.85
78117;BME280;67887;59.082;37.928;2023-02-28T00:28:17;99172.16;;;1.41;45.90
78117;BME280;67887;59.082;37.928;2023-02-28T00:30:45;99172.19;;;1.40;45.85
78117;BME280;67887;59.082;37.928;2023-02-28T00:33:11;99164.47;;;1.40;46.09
78117;BME280;67887;59.082;37.928;2023-02-28T00:35:37;99155.06;;;1.37;46.35
78117;BME280;67887;59.082;37.928;2023-02-28T00:38:04;99134.53;;;1.36;46.32
78117;BME280;67887;59.082;37.928;2023-02-28T00:40:30;99134.63;;;1.31;46.13
78117;BME280;67887;59.082;37.928;2023-02-28T00:42:56;99150.88;;;1.33;46.22
78117;BME280;67887;59.082;37.928;2023-02-28T00:45:22;99131.16;;;1.32;46.17
78117;BME280;67887;59.082;37.928;2023-02-28T00:47:49;99134.63;;;1.31;46.15
78117;BME280;67887;59.082;37.928;2023-02-28T00:50:18;99140.59;;;1.32;46.62
78117;BME280;67887;59.082;37.928;2023-02-28T00:52:46;99143.19;;;1.32;46.34
78117;BME280;67887;59.082;37.928;2023-02-28T00:55:14;99150.81;;;1.35;46.48
78117;BME280;67887;59.082;37.928;2023-02-28T00:57:40;99114.78;;;1.36;46.81
78117;BME280;67887;59.082;37.928;2023-02-28T01:00:07;99119.03;;;1.37;46.00
78117;BME280;67887;59.082;37.928;2023-02-28T01:02:34;99095.88;;;1.37;46.85
78117;BME280;67887;59.082;37.928;2023-02-28T01:05:00;99098.44;;;1.37;46.27
78117;BME280;67887;59.082;37.928;2023-02-28T01:07:30;99083.88;;;1.36;46.55
78117;BME280;67887;59.082;37.928;2023-02-28T01:09:56;99087.25;;;1.40;46.38
78117;BME280;67887;59.082;37.928;2023-02-28T01:12:24;99076.06;;;1.41;46.67
78117;BME280;67887;59.082;37.928;2023-02-28T01:14:50;99110.44;;;1.40;46.65
78117;BME280;67887;59.082;37.928;2023-02-28T01:17:16;99104.41;;;1.39;46.89
78117;BME280;67887;59.082;37.928;2023-02-28T01:19:43;99122.41;;;1.39;46.55
78117;BME280;67887;59.082;37.928;2023-02-28T01:22:10;99098.38;;;1.42;47.38
78117;BME280;67887;59.082;37.928;2023-02-28T01:24:37;99100.06;;;1.41;46.78
78117;BME280;67887;59.082;37.928;2023-02-28T01:27:03;99109.56;;;1.39;46.66
78117;BME280;67887;59.082;37.928;2023-02-28T01:29:30;99097.56;;;1.40;46.76
78117;BME280;67887;59.082;37.928;2023-02-28T01:31:56;99108.72;;;1.39;46.57
78117;BME280;67887;59.082;37.928;2023-02-28T01:34:23;99095.84;;;1.39;47.25
78117;BME280;67887;59.082;37.928;2023-02-28T01:36:50;99083.81;;;1.39;46.86
78117;BME280;67887;59.082;37.928;2023-02-28T01:39:18;99104.41;;;1.39;46.97
78117;BME280;67887;59.082;37.928;2023-02-28T01:41:44;99113.00;;;1.40;46.96
78117;BME280;67887;59.082;37.928;2023-02-28T01:47:22;99076.09;;;1.39;46.98
78117;BME280;67887;59.082;37.928;2023-02-28T01:49:51;99081.25;;;1.39;47.36
78117;BME280;67887;59.082;37.928;2023-02-28T01:52:18;99061.53;;;1.40;47.29
78117;BME280;67887;59.082;37.928;2023-02-28T01:54:49;99062.34;;;1.42;47.54
78117;BME280;67887;59.082;37.928;2023-02-28T01:57:19;99066.63;;;1.41;47.32
78117;BME280;67887;59.082;37.928;2023-02-28T01:59:56;99058.91;;;1.41;47.70
78117;BME280;67887;59.082;37.928;2023-02-28T02:02:25;99050.34;;;1.41;47.87
78117;BME280;67887;59.082;37.928;2023-02-28T02:04:55;99049.50;;;1.40;47.66
78117;BME280;67887;59.082;37.928;2023-02-28T02:07:23;99032.41;;;1.38;47.51
78117;BME280;67887;59.082;37.928;2023-02-28T02:10:00;99064.97;;;1.37;47.94
78117;BME280;67887;59.082;37.928;2023-02-28T02:18:02;99017.88;;;1.35;48.05
78117;BME280;67887;59.082;37.928;2023-02-28T02:26:46;99009.22;;;1.38;47.99
78117;BME280;67887;59.082;37.928;2023-02-28T02:34:59;99009.97;;;1.43;48.24
78117;BME280;67887;59.082;37.928;2023-02-28T02:40:15;98969.69;;;1.42;47.97
78117;BME280;67887;59.082;37.928;2023-02-28T02:45:22;98943.06;;;1.41;48.42
78117;BME280;67887;59.082;37.928;2023-02-28T02:47:51;98980.00;;;1.40;48.38
78117;BME280;67887;59.082;37.928;2023-02-28T02:50:25;98964.53;;;1.42;48.23
78117;BME280;67887;59.082;37.928;2023-02-28T02:52:56;98953.38;;;1.41;48.62
78117;BME280;67887;59.082;37.928;2023-02-28T02:55:24;98930.19;;;1.41;48.76
78117;BME280;67887;59.082;37.928;2023-02-28T02:57:58;98921.66;;;1.41;49.20
78117;BME280;67887;59.082;37.928;2023-02-28T03:00:30;98945.63;;;1.43;48.80
78117;BME280;67887;59.082;37.928;2023-02-28T03:02:59;98913.91;;;1.41;49.04
78117;BME280;67887;59.082;37.928;2023-02-28T03:05:32;98927.56;;;1.44;49.20
78117;BME280;67887;59.082;37.928;2023-02-28T03:08:03;98917.28;;;1.44;48.99
78117;BME280;67887;59.082;37.928;2023-02-28T03:16:15;98881.13;;;1.49;49.16
78117;BME280;67887;59.082;37.928;2023-02-28T03:22:01;98874.16;;;1.53;49.37
78117;BME280;67887;59.082;37.928;2023-02-28T03:24:53;98853.63;;;1.51;49.29
78117;BME280;67887;59.082;37.928;2023-02-28T03:27:27;98863.94;;;1.50;49.36
78117;BME280;67887;59.082;37.928;2023-02-28T03:30:05;98848.53;;;1.48;49.02
78117;BME280;67887;59.082;37.928;2023-02-28T03:35:16;98861.38;;;1.50;49.53
78117;BME280;67887;59.082;37.928;2023-02-28T03:38:14;98879.31;;;1.53;49.75
78117;BME280;67887;59.082;37.928;2023-02-28T03:40:49;98831.19;;;1.55;49.48
78117;BME280;67887;59.082;37.928;2023-02-28T03:43:27;98815.75;;;1.55;49.92
78117;BME280;67887;59.082;37.928;2023-02-28T03:45:56;98823.44;;;1.56;50.06
78117;BME280;67887;59.082;37.928;2023-02-28T03:48:32;98811.41;;;1.57;49.53
78117;BME280;67887;59.082;37.928;2023-02-28T03:51:03;98811.31;;;1.60;49.80
78117;BME280;67887;59.082;37.928;2023-02-28T03:53:35;98802.72;;;1.61;49.21
78117;BME280;67887;59.082;37.928;2023-02-28T03:56:26;98792.44;;;1.61;49.93
78117;BME280;67887;59.082;37.928;2023-02-28T04:01:38;98801.84;;;1.62;49.66
78117;BME280;67887;59.082;37.928;2023-02-28T04:04:04;98795.03;;;1.59;49.91
78117;BME280;67887;59.082;37.928;2023-02-28T04:06:32;98807.06;;;1.59;49.57
78117;BME280;67887;59.082;37.928;2023-02-28T04:08:59;98798.50;;;1.58;50.17
78117;BME280;67887;59.082;37.928;2023-02-28T04:11:38;98786.47;;;1.59;50.06
78117;BME280;67887;59.082;37.928;2023-02-28T04:14:07;98760.84;;;1.56;49.83
78117;BME280;67887;59.082;37.928;2023-02-28T04:16:40;98779.69;;;1.56;50.18
78117;BME280;67887;59.082;37.928;2023-02-28T04:19:09;98758.28;;;1.54;49.93
78117;BME280;67887;59.082;37.928;2023-02-28T04:21:38;98744.47;;;1.57;50.31
78117;BME280;67887;59.082;37.928;2023-02-28T04:24:09;98753.09;;;1.56;49.92
78117;BME280;67887;59.082;37.928;2023-02-28T04:26:41;98740.13;;;1.59;50.15
78117;BME280;67887;59.082;37.928;2023-02-28T04:29:10;98728.94;;;1.60;50.12
78117;BME280;67887;59.082;37.928;2023-02-28T04:31:37;98716.00;;;1.63;50.12
78117;BME280;67887;59.082;37.928;2023-02-28T04:34:03;98739.06;;;1.66;49.75
78117;BME280;67887;59.082;37.928;2023-02-28T04:36:29;98714.13;;;1.68;50.35
78117;BME280;67887;59.082;37.928;2023-02-28T04:38:56;98718.44;;;1.67;50.58
78117;BME280;67887;59.082;37.928;2023-02-28T04:41:23;98745.00;;;1.70;50.22
78117;BME280;67887;59.082;37.928;2023-02-28T04:43:51;98711.47;;;1.71;49.94
78117;BME280;67887;59.082;37.928;2023-02-28T04:46:18;98696.81;;;1.73;50.28
78117;BME280;67887;59.082;37.928;2023-02-28T04:48:44;98701.09;;;1.74;50.38
78117;BME280;67887;59.082;37.928;2023-02-28T04:51:12;98671.00;;;1.76;50.63
78117;BME280;67887;59.082;37.928;2023-02-28T04:53:40;98703.53;;;1.79;50.34
78117;BME280;67887;59.082;37.928;2023-02-28T04:56:07;98652.81;;;1.81;50.31
78117;BME280;67887;59.082;37.928;2023-02-28T04:58:34;98687.97;;;1.82;50.10
78117;BME280;67887;59.082;37.928;2023-02-28T05:03:43;98694.75;;;1.84;50.72
78117;BME280;67887;59.082;37.928;2023-02-28T05:06:10;98676.75;;;1.84;50.64
78117;BME280;67887;59.082;37.928;2023-02-28T05:08:37;98650.97;;;1.84;50.91
78117;BME280;67887;59.082;37.928;2023-02-28T05:11:13;98660.31;;;1.88;50.82
78117;BME280;67887;59.082;37.928;2023-02-28T05:13:40;98666.25;;;1.91;50.53
78117;BME280;67887;59.082;37.928;2023-02-28T05:16:06;98669.66;;;1.91;51.29
78117;BME280;67887;59.082;37.928;2023-02-28T05:18:32;98674.81;;;1.91;50.92
78117;BME280;67887;59.082;37.928;2023-02-28T05:20:59;98685.06;;;1.94;51.02
78117;BME280;67887;59.082;37.928;2023-02-28T05:23:28;98691.88;;;1.95;50.75
78117;BME280;67887;59.082;37.928;2023-02-28T05:25:54;98673.81;;;1.97;51.02
78117;BME280;67887;59.082;37.928;2023-02-28T05:28:21;98666.88;;;1.99;51.42
78117;BME280;67887;59.082;37.928;2023-02-28T05:30:47;98679.66;;;2.02;51.33
78117;BME280;67887;59.082;37.928;2023-02-28T05:33:14;98671.00;;;2.04;50.93
78117;BME280;67887;59.082;37.928;2023-02-28T05:35:41;98664.13;;;2.05;51.03
78117;BME280;67887;59.082;37.928;2023-02-28T05:38:08;98678.69;;;2.06;50.95
78117;BME280;67887;59.082;37.928;2023-02-28T05:40:34;98670.03;;;2.07;51.62
78117;BME280;67887;59.082;37.928;2023-02-28T05:43:01;98651.97;;;2.08;51.41
78117;BME280;67887;59.082;37.928;2023-02-28T05:45:27;98662.19;;;2.12;51.14
78117;BME280;67887;59.082;37.928;2023-02-28T05:47:54;98651.84;;;2.13;51.24
78117;BME280;67887;59.082;37.928;2023-02-28T05:50:21;98633.72;;;2.16;51.12
78117;BME280;67887;59.082;37.928;2023-02-28T05:52:52;98631.06;;;2.18;51.18
78117;BME280;67887;59.082;37.928;2023-02-28T05:55:18;98627.63;;;2.19;51.61
78117;BME280;67887;59.082;37.928;2023-02-28T05:57:44;98607.81;;;2.21;51.42
78117;BME280;67887;59.082;37.928;2023-02-28T06:00:11;98622.34;;;2.22;51.49
78117;BME280;67887;59.082;37.928;2023-02-28T06:02:39;98636.03;;;2.24;51.56
78117;BME280;67887;59.082;37.928;2023-02-28T06:05:14;98615.41;;;2.24;51.62
78117;BME280;67887;59.082;37.928;2023-02-28T06:07:41;98636.00;;;2.25;51.93
78117;BME280;67887;59.082;37.928;2023-02-28T06:10:08;98599.06;;;2.25;51.86
78117;BME280;67887;59.082;37.928;2023-02-28T06:12:34;98598.97;;;2.28;51.36
78117;BME280;67887;59.082;37.928;2023-02-28T06:15:00;98592.03;;;2.30;52.00
78117;BME280;67887;59.082;37.928;2023-02-28T06:17:27;98593.72;;;2.31;52.01
78117;BME280;67887;59.082;37.928;2023-02-28T06:19:53;98595.34;;;2.34;51.89
78117;BME280;67887;59.082;37.928;2023-02-28T06:22:19;98580.66;;;2.36;52.21
78117;BME280;67887;59.082;37.928;2023-02-28T06:24:46;98589.19;;;2.38;51.96
78117;BME280;67887;59.082;37.928;2023-02-28T06:27:13;98577.09;;;2.40;52.14
78117;BME280;67887;59.082;37.928;2023-02-28T06:29:39;98579.69;;;2.40;52.13
78117;BME280;67887;59.082;37.928;2023-02-28T06:32:08;98552.94;;;2.42;51.88
78117;BME280;67887;59.082;37.928;2023-02-28T06:34:34;98556.28;;;2.46;52.13
78117;BME280;67887;59.082;37.928;2023-02-28T06:37:00;98557.84;;;2.50;51.91
78117;BME280;67887;59.082;37.928;2023-02-28T06:39:29;98550.00;;;2.53;52.30
78117;BME280;67887;59.082;37.928;2023-02-28T06:41:55;98558.41;;;2.58;52.52
78117;BME280;67887;59.082;37.928;2023-02-28T06:44:23;98550.63;;;2.60;53.02
78117;BME280;67887;59.082;37.928;2023-02-28T06:46:49;98554.84;;;2.62;52.65
78117;BME280;67887;59.082;37.928;2023-02-28T06:49:16;98550.44;;;2.66;52.23
78117;BME280;67887;59.082;37.928;2023-02-28T06:51:43;98554.63;;;2.68;53.43
78117;BME280;67887;59.082;37.928;2023-02-28T06:54:13;98564.00;;;2.71;53.13
78117;BME280;67887;59.082;37.928;2023-02-28T06:56:39;98567.25;;;2.76;52.68
78117;BME280;67887;59.082;37.928;2023-02-28T06:59:06;98584.44;;;2.77;52.59
78117;BME280;67887;59.082;37.928;2023-02-28T07:01:33;98566.28;;;2.79;52.56
78117;BME280;67887;59.082;37.928;2023-02-28T07:03:59;98555.97;;;2.79;53.00
78117;BME280;67887;59.082;37.928;2023-02-28T07:06:26;98556.78;;;2.81;53.58
78117;BME280;67887;59.082;37.928;2023-02-28T07:08:53;98559.31;;;2.82;53.61
78117;BME280;67887;59.082;37.928;2023-02-28T07:11:21;98561.75;;;2.85;52.82
78117;BME280;67887;59.082;37.928;2023-02-28T07:13:52;98556.56;;;2.87;53.16
78117;BME280;67887;59.082;37.928;2023-02-28T07:16:18;98554.78;;;2.89;53.49
78117;BME280;67887;59.082;37.928;2023-02-28T07:18:45;98569.25;;;2.93;53.31
78117;BME280;67887;59.082;37.928;2023-02-28T07:21:11;98560.47;;;2.97;53.35
78117;BME280;67887;59.082;37.928;2023-02-28T07:23:38;98570.59;;;3.03;53.26
78117;BME280;67887;59.082;37.928;2023-02-28T07:26:12;98572.16;;;3.07;53.43
78117;BME280;67887;59.082;37.928;2023-02-28T07:28:45;98575.56;;;3.08;54.10
78117;BME280;67887;59.082;37.928;2023-02-28T07:31:11;98548.88;;;3.09;53.62
78117;BME280;67887;59.082;37.928;2023-02-28T07:33:40;98569.47;;;3.10;53.73
78117;BME280;67887;59.082;37.928;2023-02-28T07:36:09;98568.44;;;3.15;52.96
78117;BME280;67887;59.082;37.928;2023-02-28T07:38:45;98568.34;;;3.18;53.72
78117;BME280;67887;59.082;37.928;2023-02-28T07:41:18;98599.19;;;3.21;53.96
78117;BME280;67887;59.082;37.928;2023-02-28T07:43:45;98582.72;;;3.25;53.81
78117;BME280;67887;59.082;37.928;2023-02-28T07:46:13;98571.47;;;3.26;53.34
78117;BME280;67887;59.082;37.928;2023-02-28T07:48:43;98574.00;;;3.27;53.95
78117;BME280;67887;59.082;37.928;2023-02-28T07:51:10;98569.47;;;3.34;54.17
78117;BME280;67887;59.082;37.928;2023-02-28T07:53:36;98567.53;;;3.39;53.22
78117;BME280;67887;59.082;37.928;2023-02-28T07:56:03;98576.84;;;3.43;53.74
78117;BME280;67887;59.082;37.928;2023-02-28T07:58:30;98585.16;;;3.51;53.80
78117;BME280;67887;59.082;37.928;2023-02-28T08:01:04;98571.28;;;3.54;54.11
78117;BME280;67887;59.082;37.928;2023-02-28T08:03:31;98570.19;;;3.60;53.60
78117;BME280;67887;59.082;37.928;2023-02-28T08:05:58;98575.19;;;3.64;53.69
78117;BME280;67887;59.082;37.928;2023-02-28T08:08:25;98575.00;;;3.69;53.82
78117;BME280;67887;59.082;37.928;2023-02-28T08:10:55;98574.91;;;3.72;53.93
78117;BME280;67887;59.082;37.928;2023-02-28T08:13:21;98575.44;;;3.80;53.59
78117;BME280;67887;59.082;37.928;2023-02-28T08:15:48;98576.94;;;3.86;53.66
78117;BME280;67887;59.082;37.928;2023-02-28T08:18:14;98590.56;;;3.89;54.13
78117;BME280;67887;59.082;37.928;2023-02-28T08:20:40;98587.97;;;3.89;53.97
78117;BME280;67887;59.082;37.928;2023-02-28T08:23:07;98579.16;;;3.95;54.31
78117;BME280;67887;59.082;37.928;2023-02-28T08:25:33;98579.91;;;3.99;54.07
78117;BME280;67887;59.082;37.928;2023-02-28T08:28:00;98578.94;;;4.01;53.74
78117;BME280;67887;59.082;37.928;2023-02-28T08:30:26;98574.41;;;4.06;54.00
78117;BME280;67887;59.082;37.928;2023-02-28T08:32:52;98573.38;;;4.10;53.66
78117;BME280;67887;59.082;37.928;2023-02-28T08:35:19;98571.50;;;4.14;53.99
78117;BME280;67887;59.082;37.928;2023-02-28T08:37:48;98576.47;;;4.18;54.30
78117;BME280;67887;59.082;37.928;2023-02-28T08:40:15;98574.63;;;4.22;54.11
78117;BME280;67887;59.082;37.928;2023-02-28T08:42:47;98585.69;;;4.26;53.73
78117;BME280;67887;59.082;37.928;2023-02-28T08:45:14;98592.41;;;4.30;53.44
78117;BME280;67887;59.082;37.928;2023-02-28T08:47:41;98575.84;;;4.34;53.46
78117;BME280;67887;59.082;37.928;2023-02-28T08:50:07;98588.50;;;4.42;53.54
78117;BME280;67887;59.082;37.928;2023-02-28T08:52:34;98581.38;;;4.47;53.10
78117;BME280;67887;59.082;37.928;2023-02-28T08:55:00;98598.31;;;4.54;53.09
78117;BME280;67887;59.082;37.928;2023-02-28T08:57:26;98591.13;;;4.61;52.73
78117;BME280;67887;59.082;37.928;2023-02-28T08:59:53;98583.03;;;4.68;52.62
78117;BME280;67887;59.082;37.928;2023-02-28T09:02:19;98589.66;;;4.75;52.64
78117;BME280;67887;59.082;37.928;2023-02-28T09:04:45;98597.28;;;4.78;52.11
78117;BME280;67887;59.082;37.928;2023-02-28T09:07:12;98592.03;;;4.80;52.08
78117;BME280;67887;59.082;37.928;2023-02-28T09:09:38;98610.94;;;4.82;51.45
78117;BME280;67887;59.082;37.928;2023-02-28T09:12:25;98623.88;;;4.82;51.67
78117;BME280;67887;59.082;37.928;2023-02-28T09:14:53;98605.94;;;4.77;50.94
78117;BME280;67887;59.082;37.928;2023-02-28T09:17:19;98600.00;;;4.75;51.00
78117;BME280;67887;59.082;37.928;2023-02-28T09:19:48;98600.00;;;4.75;50.96
78117;BME280;67887;59.082;37.928;2023-02-28T09:22:15;98597.53;;;4.72;50.95
78117;BME280;67887;59.082;37.928;2023-02-28T09:24:41;98621.78;;;4.70;50.64
78117;BME280;67887;59.082;37.928;2023-02-28T09:27:07;98628.66;;;4.71;50.65
78117;BME280;67887;59.082;37.928;2023-02-28T09:29:34;98624.38;;;4.70;50.60
78117;BME280;67887;59.082;37.928;2023-02-28T09:32:01;98619.19;;;4.70;50.75
78117;BME280;67887;59.082;37.928;2023-02-28T09:34:28;98625.97;;;4.72;50.86
78117;BME280;67887;59.082;37.928;2023-02-28T09:36:56;98627.59;;;4.75;50.27
78117;BME280;67887;59.082;37.928;2023-02-28T09:39:23;98623.19;;;4.77;50.30
78117;BME280;67887;59.082;37.928;2023-02-28T09:41:55;98620.41;;;4.82;50.34
78117;BME280;67887;59.082;37.928;2023-02-28T09:44:40;98637.25;;;4.92;50.23
78117;BME280;67887;59.082;37.928;2023-02-28T09:49:44;98650.31;;;5.09;50.24
78117;BME280;67887;59.082;37.928;2023-02-28T09:52:21;98645.91;;;5.11;49.74
78117;BME280;67887;59.082;37.928;2023-02-28T09:54:48;98657.00;;;5.13;49.34
78117;BME280;67887;59.082;37.928;2023-02-28T09:57:32;98648.09;;;5.20;49.68
78117;BME280;67887;59.082;37.928;2023-02-28T10:03:01;98659.72;;;5.31;49.32
78117;BME280;67887;59.082;37.928;2023-02-28T10:05:37;98652.66;;;5.34;49.17
78117;BME280;67887;59.082;37.928;2023-02-28T10:08:14;98650.03;;;5.36;49.23
78117;BME280;67887;59.082;37.928;2023-02-28T10:10:48;98659.47;;;5.37;48.97
78117;BME280;67887;59.082;37.928;2023-02-28T10:13:35;98662.88;;;5.37;48.90
78117;BME280;67887;59.082;37.928;2023-02-28T10:16:06;98652.31;;;5.42;48.75
78117;BME280;67887;59.082;37.928;2023-02-28T10:18:46;98654.50;;;5.51;48.70
78117;BME280;67887;59.082;37.928;2023-02-28T10:21:18;98655.00;;;5.78;48.82
78117;BME280;67887;59.082;37.928;2023-02-28T10:23:47;98655.16;;;6.13;49.31
78117;BME280;67887;59.082;37.928;2023-02-28T10:26:16;98638.78;;;6.47;49.55
78117;BME280;67887;59.082;37.928;2023-02-28T10:28:43;98625.44;;;6.90;49.39
78117;BME280;67887;59.082;37.928;2023-02-28T10:31:17;98623.72;;;7.40;49.83
78117;BME280;67887;59.082;37.928;2023-02-28T10:33:44;98625.69;;;7.84;49.19
78117;BME280;67887;59.082;37.928;2023-02-28T10:36:16;98616.81;;;8.34;49.03
78117;BME280;67887;59.082;37.928;2023-02-28T10:38:43;98634.09;;;8.81;48.61
78117;BME280;67887;59.082;37.928;2023-02-28T10:41:14;98629.75;;;9.25;47.57
78117;BME280;67887;59.082;37.928;2023-02-28T10:43:43;98624.63;;;9.66;46.91
78117;BME280;67887;59.082;37.928;2023-02-28T10:48:40;98624.16;;;10.43;45.86
78117;BME280;67887;59.082;37.928;2023-02-28T10:51:13;98621.94;;;10.76;45.41
78117;BME280;67887;59.082;37.928;2023-02-28T11:03:52;98635.75;;;10.51;42.08
78117;BME280;67887;59.082;37.928;2023-02-28T11:06:32;98647.75;;;10.27;41.83
78117;BME280;67887;59.082;37.928;2023-02-28T11:09:02;98643.84;;;10.07;41.49
78117;BME280;67887;59.082;37.928;2023-02-28T11:11:30;98645.34;;;9.96;41.64
78117;BME280;67887;59.082;37.928;2023-02-28T11:14:18;98660.63;;;10.03;41.53
78117;BME280;67887;59.082;37.928;2023-02-28T11:16:46;98652.56;;;10.20;41.64
78117;BME280;67887;59.082;37.928;2023-02-28T11:19:40;98645.25;;;10.39;41.79
78117;BME280;67887;59.082;37.928;2023-02-28T11:22:09;98649.03;;;10.48;41.34
78117;BME280;67887;59.082;37.928;2023-02-28T11:24:42;98654.72;;;10.68;40.90
78117;BME280;67887;59.082;37.928;2023-02-28T11:29:58;98659.28;;;11.17;40.52
78117;BME280;67887;59.082;37.928;2023-02-28T11:32:25;98641.16;;;11.52;40.06
78117;BME280;67887;59.082;37.928;2023-02-28T11:35:10;98648.84;;;12.05;39.78
78117;BME280;67887;59.082;37.928;2023-02-28T11:37:39;98657.00;;;12.73;39.12
78117;BME280;67887;59.082;37.928;2023-02-28T11:40:13;98637.84;;;13.41;38.43
78117;BME280;67887;59.082;37.928;2023-02-28T12:01:51;98660.59;;;15.05;35.95
78117;BME280;67887;59.082;37.928;2023-02-28T12:04:33;98646.88;;;15.23;36.28
78117;BME280;67887;59.082;37.928;2023-02-28T12:07:31;98678.13;;;15.47;36.25
78117;BME280;67887;59.082;37.928;2023-02-28T12:15:54;98664.31;;;15.24;34.49
78117;BME280;67887;59.082;37.928;2023-02-28T12:26:46;98678.53;;;14.79;33.84
78117;BME280;67887;59.082;37.928;2023-02-28T12:29:32;98689.69;;;14.71;33.90
78117;BME280;67887;59.082;37.928;2023-02-28T12:32:06;98690.34;;;14.64;33.56
78117;BME280;67887;59.082;37.928;2023-02-28T12:34:38;98693.38;;;14.36;33.57
78117;BME280;67887;59.082;37.928;2023-02-28T12:37:14;98703.34;;;13.99;33.23
78117;BME280;67887;59.082;37.928;2023-02-28T12:39:50;98697.03;;;13.57;33.75
78117;BME280;67887;59.082;37.928;2023-02-28T12:42:26;98698.13;;;13.19;33.56
78117;BME280;67887;59.082;37.928;2023-02-28T12:44:58;98703.94;;;12.76;33.65
78117;BME280;67887;59.082;37.928;2023-02-28T12:47:25;98719.75;;;12.39;33.63
78117;BME280;67887;59.082;37.928;2023-02-28T12:50:02;98724.44;;;12.10;34.07
78117;BME280;67887;59.082;37.928;2023-02-28T13:00:15;98723.56;;;12.09;34.53
78117;BME280;67887;59.082;37.928;2023-02-28T13:11:29;98718.78;;;11.13;34.38
78117;BME280;67887;59.082;37.928;2023-02-28T13:14:03;98727.81;;;10.82;34.62
78117;BME280;67887;59.082;37.928;2023-02-28T13:24:49;98742.34;;;10.03;34.82
78117;BME280;67887;59.082;37.928;2023-02-28T13:29:42;98740.78;;;9.72;35.17
78117;BME280;67887;59.082;37.928;2023-02-28T13:34:38;98747.19;;;9.52;35.30
78117;BME280;67887;59.082;37.928;2023-02-28T13:39:52;98750.13;;;9.31;34.81
78117;BME280;67887;59.082;37.928;2023-02-28T13:42:22;98737.84;;;9.19;35.01
78117;BME280;67887;59.082;37.928;2023-02-28T13:47:29;98738.41;;;8.94;35.52
78117;BME280;67887;59.082;37.928;2023-02-28T14:07:06;98779.69;;;8.22;35.61
78117;BME280;67887;59.082;37.928;2023-02-28T14:09:37;98765.53;;;8.10;35.42
78117;BME280;67887;59.082;37.928;2023-02-28T14:17:57;98780.50;;;7.74;35.69
78117;BME280;67887;59.082;37.928;2023-02-28T14:20:29;98784.41;;;7.65;36.19
78117;BME280;67887;59.082;37.928;2023-02-28T14:26:03;98774.13;;;7.46;35.90
78117;BME280;67887;59.082;37.928;2023-02-28T14:31:16;98785.34;;;7.29;35.90
78117;BME280;67887;59.082;37.928;2023-02-28T14:36:52;98788.72;;;7.14;36.31
78117;BME280;67887;59.082;37.928;2023-02-28T14:39:22;98789.03;;;7.07;36.41
78117;BME280;67887;59.082;37.928;2023-02-28T14:41:51;98796.13;;;7.04;36.13
78117;BME280;67887;59.082;37.928;2023-02-28T14:44:23;98792.91;;;6.99;36.52
78117;BME280;67887;59.082;37.928;2023-02-28T14:46:52;98784.66;;;6.91;36.65
78117;BME280;67887;59.082;37.928;2023-02-28T14:52:02;98792.88;;;6.81;36.69
78117;BME280;67887;59.082;37.928;2023-02-28T14:54:30;98785.38;;;6.75;36.47
78117;BME280;67887;59.082;37.928;2023-02-28T14:56:56;98801.16;;;6.71;36.70
78117;BME280;67887;59.082;37.928;2023-02-28T14:59:29;98794.47;;;6.66;36.60
78117;BME280;67887;59.082;37.928;2023-02-28T15:02:15;98798.94;;;6.63;36.77
78117;BME280;67887;59.082;37.928;2023-02-28T15:04:42;98796.72;;;6.55;36.78
78117;BME280;67887;59.082;37.928;2023-02-28T15:07:14;98804.78;;;6.49;36.69
78117;BME280;67887;59.082;37.928;2023-02-28T15:09:40;98805.84;;;6.45;36.76
78117;BME280;67887;59.082;37.928;2023-02-28T15:12:07;98802.63;;;6.40;36.97
78117;BME280;67887;59.082;37.928;2023-02-28T15:14:34;98805.22;;;6.40;36.91
78117;BME280;67887;59.082;37.928;2023-02-28T15:17:08;98809.75;;;6.35;37.03
78117;BME280;67887;59.082;37.928;2023-02-28T15:19:42;98822.03;;;6.31;36.94
78117;BME280;67887;59.082;37.928;2023-02-28T15:22:15;98804.09;;;6.27;36.76
78117;BME280;67887;59.082;37.928;2023-02-28T15:24:47;98807.00;;;6.19;37.12
78117;BME280;67887;59.082;37.928;2023-02-28T15:27:27;98814.16;;;6.14;37.05
78117;BME280;67887;59.082;37.928;2023-02-28T15:30:00;98818.78;;;6.07;37.27
78117;BME280;67887;59.082;37.928;2023-02-28T15:32:33;98812.97;;;6.02;37.17
78117;BME280;67887;59.082;37.928;2023-02-28T15:37:52;98806.47;;;5.92;37.12
78117;BME280;67887;59.082;37.928;2023-02-28T15:40:44;98813.59;;;5.87;37.26
78117;BME280;67887;59.082;37.928;2023-02-28T15:43:16;98815.56;;;5.81;37.30
78117;BME280;67887;59.082;37.928;2023-02-28T15:45:48;98814.06;;;5.76;37.47
78117;BME280;67887;59.082;37.928;2023-02-28T15:48:27;98813.38;;;5.72;37.27
78117;BME280;67887;59.082;37.928;2023-02-28T15:51:08;98809.34;;;5.65;37.34
78117;BME280;67887;59.082;37.928;2023-02-28T15:56:29;98814.91;;;5.56;37.45
78117;BME280;67887;59.082;37.928;2023-02-28T15:59:04;98814.13;;;5.54;37.63
78117;BME280;67887;59.082;37.928;2023-02-28T16:01:33;98811.75;;;5.49;37.89
78117;BME280;67887;59.082;37.928;2023-02-28T16:04:05;98812.72;;;5.47;37.68
78117;BME280;67887;59.082;37.928;2023-02-28T16:07:11;98817.13;;;5.45;37.86